Time,TemperatureF,DewpointF,PressureIn,WindDirection,WindDirectionDegrees,WindSpeedMPH,WindSpeedGustMPH,Humidity,HourlyPrecipIn,Conditions,Clouds,dailyrainin,SoftwareType,DateUTC
2013-05-12 00:02:00,45.0,32.0,30.21,NW,310,6.0,-999.0,61,-99.99,,,-99.99,,2013-05-12 05:02:00,
2013-05-12 00:11:00,45.0,32.0,30.21,NW,310,6.0,-999.0,61,-99.99,,,-99.99,,2013-05-12 05:11:00,
2013-05-12 00:22:00,43.0,32.0,30.22,NW,310,5.0,-999.0,65,-99.99,,,-99.99,,2013-05-12 05:22:00,
2013-05-12 00:32:00,41.0,32.0,30.22,NW,320,6.0,-999.0,70,-99.99,,,-99.99,,2013-05-12 05:32:00,
2013-05-12 00:42:00,41.0,32.0,30.22,NW,320,5.0,-999.0,70,-99.99,,,-99.99,,2013-05-12 05:42:00,
2013-05-12 00:52:00,41.0,32.0,30.22,NW,310,6.0,-999.0,70,-99.99,,,-99.99,,2013-05-12 05:52:00,
2013-05-12 01:01:00,41.0,32.0,30.22,NW,310,6.0,-999.0,70,-99.99,,,-99.99,,2013-05-12 06:01:00,
2013-05-12 01:11:00,41.0,32.0,30.22,NW,310,6.0,-999.0,70,-99.99,,,-99.99,,2013-05-12 06:11:00,
2013-05-12 01:21:00,41.0,32.0,30.22,NW,310,5.0,-999.0,70,-99.99,,,-99.99,,2013-05-12 06:21:00,
2013-05-12 01:32:00,41.0,32.0,30.21,NW,320,5.0,-999.0,70,-99.99,,,-99.99,,2013-05-12 06:32:00,
2013-05-12 01:42:00,41.0,32.0,30.21,NW,310,5.0,-999.0,70,-99.99,,,-99.99,,2013-05-12 06:42:00,
2013-05-12 01:52:00,41.0,32.0,30.21,NW,310,6.0,-999.0,70,-99.99,,,-99.99,,2013-05-12 06:52:00,
2013-05-12 02:01:00,41.0,32.0,30.21,NW,310,6.0,-999.0,70,-99.99,,,-99.99,,2013-05-12 07:01:00,
2013-05-12 02:11:00,41.0,32.0,30.21,NW,310,6.0,-999.0,70,-99.99,,,-99.99,,2013-05-12 07:11:00,
2013-05-12 02:21:00,39.0,32.0,30.21,NW,310,6.0,-999.0,75,-99.99,,,-99.99,,2013-05-12 07:21:00,
2013-05-12 02:32:00,39.0,32.0,30.21,NW,310,6.0,-999.0,75,-99.99,,,-99.99,,2013-05-12 07:32:00,
2013-05-12 02:42:00,39.0,32.0,30.21,NW,310,6.0,-999.0,75,-99.99,,,-99.99,,2013-05-12 07:42:00,
2013-05-12 02:52:00,39.0,32.0,30.21,WNW,300,5.0,-999.0,75,-99.99,,,-99.99,,2013-05-12 07:52:00,
2013-05-12 03:02:00,39.0,32.0,30.21,WNW,300,5.0,-999.0,75,-99.99,,,-99.99,,2013-05-12 08:02:00,
2013-05-12 03:11:00,39.0,32.0,30.21,WNW,300,5.0,-999.0,75,-99.99,,,-99.99,,2013-05-12 08:11:00,
2013-05-12 03:21:00,37.0,32.0,30.21,West,270,5.0,-999.0,80,-99.99,,,-99.99,,2013-05-12 08:21:00,
2013-05-12 03:32:00,36.0,32.0,30.22,West,270,5.0,-999.0,86,-99.99,,,-99.99,,2013-05-12 08:32:00,
2013-05-12 03:42:00,37.0,32.0,30.22,West,280,5.0,-999.0,80,-99.99,,,-99.99,,2013-05-12 08:42:00,
2013-05-12 03:53:00,37.0,32.0,30.22,WNW,290,3.0,-999.0,80,-99.99,,,-99.99,,2013-05-12 08:53:00,
2013-05-12 04:01:00,37.0,32.0,30.22,WNW,290,3.0,-999.0,80,-99.99,,,-99.99,,2013-05-12 09:01:00,
2013-05-12 04:11:00,37.0,32.0,30.22,WNW,290,3.0,-999.0,80,-99.99,,,-99.99,,2013-05-12 09:11:00,
2013-05-12 04:21:00,37.0,30.0,30.22,WNW,290,5.0,-999.0,74,-99.99,,,-99.99,,2013-05-12 09:21:00,
2013-05-12 04:33:00,37.0,30.0,30.22,WNW,300,5.0,-999.0,74,-99.99,,,-99.99,,2013-05-12 09:33:00,
2013-05-12 04:43:00,37.0,30.0,30.22,WNW,300,5.0,-999.0,74,-99.99,,,-99.99,,2013-05-12 09:43:00,
2013-05-12 04:53:00,37.0,30.0,30.22,WNW,290,6.0,-999.0,74,-99.99,,,-99.99,,2013-05-12 09:53:00,
2013-05-12 05:03:00,37.0,30.0,30.22,WNW,290,6.0,-999.0,74,-99.99,,,-99.99,,2013-05-12 10:03:00,
2013-05-12 05:12:00,37.0,30.0,30.22,WNW,290,6.0,-999.0,74,-99.99,,,-99.99,,2013-05-12 10:12:00,
2013-05-12 05:22:00,36.0,30.0,30.22,WNW,290,6.0,-999.0,80,-99.99,,,-99.99,,2013-05-12 10:22:00,
2013-05-12 05:33:00,36.0,30.0,30.22,WNW,290,5.0,-999.0,80,-99.99,,,-99.99,,2013-05-12 10:33:00,
2013-05-12 05:42:00,36.0,30.0,30.22,West,280,5.0,-999.0,80,-99.99,,,-99.99,,2013-05-12 10:42:00,
2013-05-12 05:52:00,36.0,30.0,30.22,WNW,300,6.0,-999.0,80,-99.99,,,-99.99,,2013-05-12 10:52:00,
2013-05-12 06:02:00,36.0,30.0,30.22,WNW,300,6.0,-999.0,80,-99.99,,,-99.99,,2013-05-12 11:02:00,
2013-05-12 06:12:00,36.0,30.0,30.22,WNW,300,6.0,-999.0,80,-99.99,,,-99.99,,2013-05-12 11:12:00,
2013-05-12 06:21:00,36.0,30.0,30.22,NW,310,6.0,-999.0,80,-99.99,,,-99.99,,2013-05-12 11:21:00,
2013-05-12 06:32:00,36.0,30.0,30.22,WNW,300,6.0,-999.0,80,-99.99,,,-99.99,,2013-05-12 11:32:00,
2013-05-12 06:42:00,36.0,30.0,30.23,WNW,290,5.0,-999.0,80,-99.99,,,-99.99,,2013-05-12 11:42:00,
2013-05-12 06:52:00,37.0,30.0,30.23,West,270,6.0,-999.0,74,-99.99,,,-99.99,,2013-05-12 11:52:00,
2013-05-12 07:01:00,37.0,30.0,30.23,West,270,6.0,-999.0,74,-99.99,,,-99.99,,2013-05-12 12:01:00,
2013-05-12 07:11:00,37.0,30.0,30.23,West,270,6.0,-999.0,74,-99.99,,,-99.99,,2013-05-12 12:11:00,
2013-05-12 07:21:00,39.0,32.0,30.24,WNW,300,5.0,-999.0,75,-99.99,,,-99.99,,2013-05-12 12:21:00,
2013-05-12 07:32:00,41.0,32.0,30.24,NW,310,5.0,-999.0,70,-99.99,,,-99.99,,2013-05-12 12:32:00,
2013-05-12 07:42:00,41.0,32.0,30.24,NW,310,6.0,-999.0,70,-99.99,,,-99.99,,2013-05-12 12:42:00,
2013-05-12 07:52:00,43.0,32.0,30.24,NW,310,7.0,-999.0,65,-99.99,,,-99.99,,2013-05-12 12:52:00,
2013-05-12 08:01:00,43.0,32.0,30.24,NW,310,7.0,-999.0,65,-99.99,,,-99.99,,2013-05-12 13:01:00,
2013-05-12 08:11:00,43.0,32.0,30.24,NW,310,7.0,-999.0,65,-99.99,,,-99.99,,2013-05-12 13:11:00,
2013-05-12 08:21:00,45.0,32.0,30.25,NW,320,9.0,-999.0,61,-99.99,,,-99.99,,2013-05-12 13:21:00,
2013-05-12 08:32:00,45.0,32.0,30.25,NW,320,8.0,-999.0,61,-99.99,,,-99.99,,2013-05-12 13:32:00,
2013-05-12 08:42:00,46.0,32.0,30.26,NW,310,8.0,-999.0,57,-99.99,,,-99.99,,2013-05-12 13:42:00,
2013-05-12 08:52:00,46.0,32.0,30.27,NW,310,8.0,-999.0,57,-99.99,,,-99.99,,2013-05-12 13:52:00,
2013-05-12 09:01:00,46.0,32.0,30.27,NW,310,8.0,-999.0,57,-99.99,,,-99.99,,2013-05-12 14:01:00,
2013-05-12 09:11:00,46.0,32.0,30.27,NW,310,8.0,-999.0,57,-99.99,,,-99.99,,2013-05-12 14:11:00,
2013-05-12 09:21:00,48.0,30.0,30.27,NNW,330,9.0,-999.0,49,-99.99,,,-99.99,,2013-05-12 14:21:00,
2013-05-12 09:31:00,48.0,30.0,30.28,NNW,330,8.0,-999.0,49,-99.99,,,-99.99,,2013-05-12 14:31:00,
2013-05-12 09:42:00,50.0,32.0,30.28,NW,320,9.0,-999.0,49,-99.99,,,-99.99,,2013-05-12 14:42:00,
2013-05-12 09:52:00,50.0,30.0,30.28,NNW,330,8.0,-999.0,46,-99.99,,,-99.99,,2013-05-12 14:52:00,
2013-05-12 10:01:00,50.0,30.0,30.28,NNW,330,8.0,-999.0,46,-99.99,,,-99.99,,2013-05-12 15:01:00,
2013-05-12 10:11:00,50.0,30.0,30.28,NNW,330,8.0,-999.0,46,-99.99,,,-99.99,,2013-05-12 15:11:00,
2013-05-12 10:21:00,50.0,28.0,30.28,NNW,330,13.0,21.0,43,-99.99,,,-99.99,,2013-05-12 15:21:00,
2013-05-12 10:34:00,52.0,28.0,30.28,WNW,290,15.0,-999.0,40,-99.99,,,-99.99,,2013-05-12 15:34:00,
2013-05-12 10:42:00,52.0,28.0,30.28,NW,320,13.0,21.0,40,-99.99,,,-99.99,,2013-05-12 15:42:00,
2013-05-12 10:53:00,52.0,28.0,30.28,NNW,330,12.0,18.0,40,-99.99,,,-99.99,,2013-05-12 15:53:00,
2013-05-12 11:02:00,52.0,28.0,30.28,NNW,330,12.0,18.0,40,-99.99,,,-99.99,,2013-05-12 16:02:00,
2013-05-12 11:12:00,52.0,28.0,30.28,NNW,330,12.0,18.0,40,-99.99,,,-99.99,,2013-05-12 16:12:00,
2013-05-12 11:23:00,52.0,28.0,30.28,NNW,330,12.0,18.0,40,-99.99,,,-99.99,,2013-05-12 16:23:00,
2013-05-12 11:33:00,54.0,30.0,30.27,WNW,300,16.0,21.0,40,-99.99,,,-99.99,,2013-05-12 16:33:00,
2013-05-12 11:42:00,54.0,30.0,30.27,NW,320,13.0,17.0,40,-99.99,,,-99.99,,2013-05-12 16:42:00,
2013-05-12 11:53:00,54.0,28.0,30.27,WNW,290,14.0,-999.0,37,-99.99,,,-99.99,,2013-05-12 16:53:00,
2013-05-12 12:02:00,54.0,28.0,30.27,WNW,290,14.0,-999.0,37,-99.99,,,-99.99,,2013-05-12 17:02:00,
2013-05-12 12:11:00,54.0,28.0,30.27,WNW,290,14.0,-999.0,37,-99.99,,,-99.99,,2013-05-12 17:11:00,
2013-05-12 12:22:00,54.0,28.0,30.27,WNW,290,14.0,-999.0,37,-99.99,,,-99.99,,2013-05-12 17:22:00,
2013-05-12 12:32:00,55.0,30.0,30.26,NNW,340,14.0,21.0,37,-99.99,,,-99.99,,2013-05-12 17:32:00,
2013-05-12 12:42:00,54.0,30.0,30.26,NW,320,13.0,18.0,40,-99.99,,,-99.99,,2013-05-12 17:42:00,
2013-05-12 12:53:00,54.0,28.0,30.26,WNW,290,8.0,-999.0,37,-99.99,,,-99.99,,2013-05-12 17:53:00,
2013-05-12 13:01:00,54.0,28.0,30.26,WNW,290,8.0,-999.0,37,-99.99,,,-99.99,,2013-05-12 18:01:00,
2013-05-12 13:12:00,54.0,28.0,30.26,WNW,290,8.0,-999.0,37,-99.99,,,-99.99,,2013-05-12 18:12:00,
2013-05-12 13:22:00,54.0,28.0,30.26,WNW,290,8.0,-999.0,37,-99.99,,,-99.99,,2013-05-12 18:22:00,
2013-05-12 13:32:00,55.0,30.0,30.25,NW,310,14.0,18.0,37,-99.99,,,-99.99,,2013-05-12 18:32:00,
2013-05-12 13:42:00,55.0,30.0,30.25,NW,310,14.0,18.0,37,-99.99,,,-99.99,,2013-05-12 18:42:00,
2013-05-12 13:52:00,55.0,32.0,30.25,WNW,290,13.0,20.0,40,-99.99,,,-99.99,,2013-05-12 18:52:00,
2013-05-12 14:01:00,55.0,32.0,30.25,WNW,290,13.0,20.0,40,-99.99,,,-99.99,,2013-05-12 19:01:00,
2013-05-12 14:11:00,55.0,32.0,30.25,WNW,290,13.0,20.0,40,-99.99,,,-99.99,,2013-05-12 19:11:00,
2013-05-12 14:21:00,57.0,32.0,30.24,NW,320,8.0,16.0,38,-99.99,,,-99.99,,2013-05-12 19:21:00,
2013-05-12 14:32:00,57.0,32.0,30.24,WNW,300,8.0,17.0,38,-99.99,,,-99.99,,2013-05-12 19:32:00,
2013-05-12 14:42:00,57.0,32.0,30.23,West,280,14.0,21.0,38,-99.99,,,-99.99,,2013-05-12 19:42:00,
2013-05-12 14:52:00,57.0,32.0,30.23,WNW,300,13.0,17.0,38,-99.99,,,-99.99,,2013-05-12 19:52:00,
2013-05-12 15:02:00,57.0,32.0,30.23,WNW,300,13.0,17.0,38,-99.99,,,-99.99,,2013-05-12 20:02:00,
2013-05-12 15:11:00,57.0,32.0,30.23,WNW,300,13.0,17.0,38,-99.99,,,-99.99,,2013-05-12 20:11:00,
2013-05-12 15:21:00,57.0,34.0,30.22,West,280,14.0,18.0,41,-99.99,,,-99.99,,2013-05-12 20:21:00,
2013-05-12 15:32:00,57.0,32.0,30.21,WNW,290,7.0,12.0,38,-99.99,,,-99.99,,2013-05-12 20:32:00,
2013-05-12 15:42:00,59.0,34.0,30.21,NW,310,13.0,20.0,38,-99.99,,,-99.99,,2013-05-12 20:42:00,
2013-05-12 15:52:00,59.0,32.0,30.21,West,260,13.0,17.0,35,-99.99,,,-99.99,,2013-05-12 20:52:00,
2013-05-12 16:01:00,59.0,32.0,30.21,West,260,13.0,17.0,35,-99.99,,,-99.99,,2013-05-12 21:01:00,
2013-05-12 16:11:00,59.0,32.0,30.21,West,260,13.0,17.0,35,-99.99,,,-99.99,,2013-05-12 21:11:00,
2013-05-12 16:21:00,59.0,32.0,30.20,NW,310,12.0,18.0,35,-99.99,,,-99.99,,2013-05-12 21:21:00,
2013-05-12 16:33:00,59.0,32.0,30.20,NW,320,10.0,17.0,35,-99.99,,,-99.99,,2013-05-12 21:33:00,
2013-05-12 16:42:00,59.0,32.0,30.19,NNW,330,13.0,17.0,35,-99.99,,,-99.99,,2013-05-12 21:42:00,
2013-05-12 16:53:00,59.0,30.0,30.19,WNW,300,5.0,12.0,33,-99.99,,,-99.99,,2013-05-12 21:53:00,
2013-05-12 17:02:00,59.0,30.0,30.19,WNW,300,5.0,12.0,33,-99.99,,,-99.99,,2013-05-12 22:02:00,
2013-05-12 17:12:00,59.0,30.0,30.19,WNW,300,5.0,12.0,33,-99.99,,,-99.99,,2013-05-12 22:12:00,
2013-05-12 17:23:00,59.0,32.0,30.19,NW,310,9.0,-999.0,35,-99.99,,,-99.99,,2013-05-12 22:23:00,
2013-05-12 17:33:00,59.0,32.0,30.18,West,270,6.0,-999.0,35,-99.99,,,-99.99,,2013-05-12 22:33:00,
2013-05-12 17:42:00,59.0,34.0,30.18,NW,310,10.0,-999.0,38,-99.99,,,-99.99,,2013-05-12 22:42:00,
2013-05-12 17:52:00,59.0,32.0,30.18,NW,320,12.0,-999.0,35,-99.99,,,-99.99,,2013-05-12 22:52:00,
2013-05-12 18:02:00,59.0,32.0,30.18,NW,320,12.0,-999.0,35,-99.99,,,-99.99,,2013-05-12 23:02:00,
2013-05-12 18:12:00,59.0,32.0,30.18,NW,320,12.0,-999.0,35,-99.99,,,-99.99,,2013-05-12 23:12:00,
2013-05-12 18:22:00,59.0,32.0,30.18,NW,310,13.0,-999.0,35,-99.99,,,-99.99,,2013-05-12 23:22:00,
2013-05-12 18:32:00,59.0,32.0,30.18,NW,310,13.0,-999.0,35,-99.99,,,-99.99,,2013-05-12 23:32:00,
2013-05-12 18:42:00,59.0,32.0,30.18,NW,320,8.0,-999.0,35,-99.99,,,-99.99,,2013-05-12 23:42:00,
2013-05-12 18:52:00,59.0,32.0,30.17,NNW,330,12.0,-999.0,35,-99.99,,,-99.99,,2013-05-12 23:52:00,
2013-05-12 19:01:00,59.0,32.0,30.17,NNW,330,12.0,-999.0,35,-99.99,,,-99.99,,2013-05-13 00:01:00,
2013-05-12 19:11:00,59.0,32.0,30.17,NNW,330,12.0,-999.0,35,-99.99,,,-99.99,,2013-05-13 00:11:00,
2013-05-12 19:21:00,57.0,32.0,30.17,West,280,8.0,-999.0,38,-99.99,,,-99.99,,2013-05-13 00:21:00,
2013-05-12 19:32:00,57.0,32.0,30.17,WNW,300,7.0,-999.0,38,-99.99,,,-99.99,,2013-05-13 00:32:00,
2013-05-12 19:42:00,55.0,32.0,30.17,WNW,290,8.0,-999.0,40,-99.99,,,-99.99,,2013-05-13 00:42:00,
2013-05-12 19:52:00,55.0,32.0,30.17,West,270,8.0,-999.0,40,-99.99,,,-99.99,,2013-05-13 00:52:00,
2013-05-12 20:01:00,55.0,32.0,30.17,West,270,8.0,-999.0,40,-99.99,,,-99.99,,2013-05-13 01:01:00,
2013-05-12 20:11:00,55.0,32.0,30.17,West,270,8.0,-999.0,40,-99.99,,,-99.99,,2013-05-13 01:11:00,
2013-05-12 20:22:00,52.0,34.0,30.17,West,270,6.0,-999.0,50,-99.99,,,-99.99,,2013-05-13 01:22:00,
2013-05-12 20:31:00,52.0,36.0,30.17,West,280,5.0,-999.0,53,-99.99,,,-99.99,,2013-05-13 01:31:00,
2013-05-12 20:42:00,52.0,34.0,30.18,West,280,3.0,-999.0,50,-99.99,,,-99.99,,2013-05-13 01:42:00,
2013-05-12 20:52:00,52.0,34.0,30.18,WNW,290,3.0,-999.0,50,-99.99,,,-99.99,,2013-05-13 01:52:00,
2013-05-12 21:01:00,52.0,34.0,30.18,WNW,290,3.0,-999.0,50,-99.99,,,-99.99,,2013-05-13 02:01:00,
2013-05-12 21:11:00,52.0,34.0,30.18,WNW,290,3.0,-999.0,50,-99.99,,,-99.99,,2013-05-13 02:11:00,
2013-05-12 21:21:00,50.0,34.0,30.19,North,0,0.0,-999.0,53,-99.99,,,-99.99,,2013-05-13 02:21:00,
2013-05-12 21:32:00,50.0,34.0,30.19,West,270,3.0,-999.0,53,-99.99,,,-99.99,,2013-05-13 02:32:00,
2013-05-12 21:42:00,50.0,32.0,30.19,West,280,3.0,-999.0,49,-99.99,,,-99.99,,2013-05-13 02:42:00,
2013-05-12 21:52:00,52.0,32.0,30.20,WNW,300,5.0,-999.0,46,-99.99,,,-99.99,,2013-05-13 02:52:00,
2013-05-12 22:02:00,52.0,32.0,30.20,WNW,300,5.0,-999.0,46,-99.99,,,-99.99,,2013-05-13 03:02:00,
2013-05-12 22:11:00,52.0,32.0,30.20,WNW,300,5.0,-999.0,46,-99.99,,,-99.99,,2013-05-13 03:11:00,
2013-05-12 22:21:00,45.0,39.0,30.20,North,0,0.0,-999.0,81,-99.99,,,-99.99,,2013-05-13 03:21:00,
2013-05-12 22:32:00,41.0,39.0,30.20,North,0,0.0,-999.0,93,-99.99,,,-99.99,,2013-05-13 03:32:00,
2013-05-12 22:42:00,43.0,39.0,30.20,North,0,0.0,-999.0,86,-99.99,,,-99.99,,2013-05-13 03:42:00,
2013-05-12 22:53:00,41.0,39.0,30.20,North,0,0.0,-999.0,93,-99.99,,,-99.99,,2013-05-13 03:53:00,
2013-05-12 23:02:00,41.0,39.0,30.20,North,0,0.0,-999.0,93,-99.99,,,-99.99,,2013-05-13 04:02:00,
2013-05-12 23:12:00,41.0,39.0,30.20,North,0,0.0,-999.0,93,-99.99,,,-99.99,,2013-05-13 04:12:00,
2013-05-12 23:23:00,41.0,39.0,30.20,North,0,0.0,-999.0,93,-99.99,,,-99.99,,2013-05-13 04:23:00,
2013-05-12 23:32:00,41.0,39.0,30.20,North,0,0.0,-999.0,93,-99.99,,,-99.99,,2013-05-13 04:32:00,
2013-05-12 23:42:00,41.0,39.0,30.19,North,0,0.0,-999.0,93,-99.99,,,-99.99,,2013-05-13 04:42:00,
2013-05-12 23:52:00,41.0,39.0,30.19,North,0,0.0,-999.0,93,-99.99,,,-99.99,,2013-05-13 04:52:00,